Mount Moriah, Missouri
Current Conditions -  °F | °C
As of 11:53 PM on Saturday 20 Dec 2014 (Local Time) from KLWD Reporting Station
Haze Haze  
Wind Chill: -3°   Ceiling: 600
Heat Index:   Visibility: 6mi
Dew Point:   Wind: 16mph
Humidity: 97%   Direction: 180°S
Pressure: 30.09"   Gusts: 22mph
Location:  40.33°N, 93.8°W
Report Text: KLWD 210553Z AUTO 18014G19KT 6SM BR OVC006 02/02 A3009 RMK AO2 SLP198 T00220017 10028 20017 400281011 58005
Loading
Personal Weather Stations






























Interactive Weather Map New forecast layout! Learn more

10-Day Weather Forecast

Advertisements
Track Severe Weather on mobile